createdAt,value
2023-03-30T00:00:23.419Z,95504.81
2023-03-30T00:02:53.953Z,95503.78
2023-03-30T00:05:23.923Z,95490.41
2023-03-30T00:07:52.113Z,95489.41
2023-03-30T00:10:20.291Z,95495.59
2023-03-30T00:12:50.620Z,95489.19
2023-03-30T00:15:21.599Z,95476.38
2023-03-30T00:17:50.404Z,95481.44
2023-03-30T00:20:18.625Z,95469.69
2023-03-30T00:22:47.266Z,95460.84
2023-03-30T00:25:16.761Z,95469.16
2023-03-30T00:27:44.861Z,95458.44
2023-03-30T00:30:14.381Z,95464.59
2023-03-30T00:32:43.989Z,95464.59
2023-03-30T00:35:12.440Z,95461.63
2023-03-30T00:37:40.521Z,95450.38
2023-03-30T00:40:10.501Z,95445.28
2023-03-30T00:42:38.667Z,95441.28
2023-03-30T00:45:10.283Z,95437.22
2023-03-30T00:47:39.747Z,95434.50
2023-03-30T00:50:09.930Z,95421.94
2023-03-30T00:52:38.429Z,95412.38
2023-03-30T00:55:07.627Z,95408.97
2023-03-30T00:57:37.001Z,95396.22
2023-03-30T01:00:07.034Z,95382.69
2023-03-30T01:02:35.849Z,95373.06
2023-03-30T01:05:04.509Z,95375.25
2023-03-30T01:07:34.443Z,95365.38
2023-03-30T01:10:02.963Z,95366.19
2023-03-30T01:12:31.616Z,95370.97
2023-03-30T01:14:59.691Z,95378.19
2023-03-30T01:17:29.752Z,95370.41
2023-03-30T01:20:38.539Z,95365.28
2023-03-30T01:23:50.334Z,95379.09
2023-03-30T01:26:38.932Z,95367.56
2023-03-30T01:29:09.635Z,95361.69
2023-03-30T01:31:53.864Z,95374.06
2023-03-30T01:34:37.902Z,95367.50
2023-03-30T01:37:28.850Z,95365.44
2023-03-30T01:39:59.153Z,95363.31
2023-03-30T01:42:31.210Z,95356.34
2023-03-30T01:45:03.781Z,95346.41
2023-03-30T01:47:35.189Z,95346.88
2023-03-30T01:50:04.871Z,95340.41
2023-03-30T01:52:37.032Z,95340.41
2023-03-30T01:55:09.065Z,95341.09
2023-03-30T01:57:38.713Z,95339.19
2023-03-30T02:00:14.413Z,95329.81
2023-03-30T02:02:44.759Z,95334.81
2023-03-30T02:05:13.278Z,95329.38
2023-03-30T02:07:41.695Z,95318.78
2023-03-30T02:10:12.102Z,95318.44
2023-03-30T02:12:40.255Z,95315.47
2023-03-30T02:15:10.501Z,95309.31
2023-03-30T02:17:38.890Z,95312.78
2023-03-30T02:20:10.766Z,95307.16
2023-03-30T02:22:38.823Z,95302.63
2023-03-30T02:25:07.982Z,95306.31
2023-03-30T02:27:38.627Z,95301.75
2023-03-30T02:30:09.047Z,95299.53
2023-03-30T02:32:41.323Z,95304.06
2023-03-30T02:35:22.653Z,95296.13
2023-03-30T02:38:16.064Z,95302.53
2023-03-30T02:40:49.796Z,95298.16
2023-03-30T02:43:39.166Z,95303.16
2023-03-30T02:46:30.326Z,95302.06
2023-03-30T02:49:04.029Z,95300.16
2023-03-30T02:51:41.170Z,95305.63
2023-03-30T02:54:17.199Z,95312.41
2023-03-30T02:57:07.842Z,95305.97
2023-03-30T02:59:39.266Z,95304.72
2023-03-30T03:02:08.371Z,95300.09
2023-03-30T03:04:36.711Z,95324.75
2023-03-30T03:07:22.736Z,95320.78
2023-03-30T03:09:51.974Z,95333.09
2023-03-30T03:12:20.618Z,95335.88
2023-03-30T03:14:50.227Z,95338.38
2023-03-30T03:17:22.495Z,95338.41
2023-03-30T03:19:50.944Z,95335.75
2023-03-30T03:22:21.384Z,95344.66
2023-03-30T03:24:49.520Z,95337.72
2023-03-30T03:27:32.988Z,95329.13
2023-03-30T03:30:15.731Z,95331.47
2023-03-30T03:32:50.263Z,95338.94
2023-03-30T03:35:19.022Z,95338.84
2023-03-30T03:37:47.522Z,95328.84
2023-03-30T03:40:16.695Z,95339.56
2023-03-30T03:42:45.762Z,95334.19
2023-03-30T03:45:17.114Z,95338.50
2023-03-30T03:47:57.569Z,95339.84
2023-03-30T03:50:44.106Z,95340.66
2023-03-30T03:53:13.027Z,95330.84
2023-03-30T03:55:41.658Z,95335.47
2023-03-30T03:58:09.949Z,95336.19
2023-03-30T04:00:39.455Z,95336.59
2023-03-30T04:03:08.646Z,95344.44
2023-03-30T04:05:37.231Z,95344.63
2023-03-30T04:08:06.443Z,95337.34
2023-03-30T04:10:34.766Z,95337.88
2023-03-30T04:13:18.257Z,95331.44
2023-03-30T04:15:47.760Z,95331.66
2023-03-30T04:18:34.681Z,95306.28
2023-03-30T04:21:23.795Z,95305.47
2023-03-30T04:23:52.318Z,95317.38
2023-03-30T04:26:20.413Z,95318.44
2023-03-30T04:28:57.352Z,95322.47
2023-03-30T04:32:02.938Z,95308.19
2023-03-30T04:34:57.675Z,95312.41
2023-03-30T04:37:30.397Z,95314.50
2023-03-30T04:40:28.262Z,95313.31
2023-03-30T04:43:07.334Z,95308.13
2023-03-30T04:46:01.866Z,95325.13
2023-03-30T04:49:06.863Z,95306.88
2023-03-30T04:51:54.760Z,95309.63
2023-03-30T04:54:41.108Z,95311.47
2023-03-30T04:57:44.175Z,95309.63
2023-03-30T05:00:32.190Z,95312.22
2023-03-30T05:03:23.467Z,95322.66
2023-03-30T05:06:16.084Z,95328.81
2023-03-30T05:09:16.659Z,95330.69
2023-03-30T05:12:19.827Z,95366.31
2023-03-30T05:14:54.650Z,95364.59
2023-03-30T05:17:41.864Z,95374.22
2023-03-30T05:20:42.924Z,95362.47
2023-03-30T05:23:25.551Z,95368.72
2023-03-30T05:26:11.822Z,95353.38
2023-03-30T05:28:51.476Z,95353.44
2023-03-30T05:31:49.407Z,95342.03
2023-03-30T05:34:52.470Z,95351.97
2023-03-30T05:37:29.771Z,95343.69
2023-03-30T05:40:22.234Z,95347.72
2023-03-30T05:43:06.811Z,95356.63
2023-03-30T05:45:54.669Z,95356.13
2023-03-30T05:48:41.238Z,95353.44
2023-03-30T05:51:18.453Z,95362.50
2023-03-30T05:54:08.081Z,95358.97
2023-03-30T05:56:52.548Z,95350.72
2023-03-30T05:59:37.276Z,95341.69
2023-03-30T06:02:28.462Z,95333.66
2023-03-30T06:05:02.665Z,95346.03
2023-03-30T06:07:30.881Z,95324.88
2023-03-30T06:09:59.782Z,95327.72
2023-03-30T06:12:31.780Z,95317.31
2023-03-30T06:15:02.668Z,95328.00
2023-03-30T06:17:42.766Z,95314.06
2023-03-30T06:20:12.777Z,95321.28
2023-03-30T06:22:45.719Z,95311.09
2023-03-30T06:25:20.202Z,95304.06
2023-03-30T06:27:49.685Z,95284.53
2023-03-30T06:30:18.259Z,95282.63
2023-03-30T06:32:50.273Z,95282.31
2023-03-30T06:35:26.219Z,95272.03
2023-03-30T06:37:55.223Z,95264.69
2023-03-30T06:40:23.317Z,95256.59
2023-03-30T06:42:54.563Z,95236.38
2023-03-30T06:45:29.799Z,95227.28
2023-03-30T06:47:58.414Z,95230.81
2023-03-30T06:50:27.645Z,95223.00
2023-03-30T06:53:08.449Z,95207.34
2023-03-30T06:55:43.113Z,95205.72
2023-03-30T06:58:17.881Z,95216.97
2023-03-30T07:00:46.600Z,95207.56
2023-03-30T07:03:33.072Z,95205.78
2023-03-30T07:06:12.467Z,95212.66
2023-03-30T07:08:41.602Z,95203.19
2023-03-30T07:11:12.650Z,95204.41
2023-03-30T07:13:43.043Z,95204.81
2023-03-30T07:16:11.596Z,95210.47
2023-03-30T07:18:39.748Z,95197.72
2023-03-30T07:21:08.502Z,95196.44
2023-03-30T07:23:40.555Z,95201.84
2023-03-30T07:26:10.599Z,95200.44
2023-03-30T07:28:46.739Z,95202.22
2023-03-30T07:31:17.277Z,95204.72
2023-03-30T07:33:45.741Z,95223.63
2023-03-30T07:36:18.863Z,95210.88
2023-03-30T07:38:48.623Z,95205.00
2023-03-30T07:41:17.966Z,95192.00
2023-03-30T07:43:51.530Z,95191.56
2023-03-30T07:46:19.658Z,95193.56
2023-03-30T07:48:51.096Z,95204.59
2023-03-30T07:51:20.890Z,95188.78
2023-03-30T07:53:57.268Z,95196.13
2023-03-30T07:56:38.527Z,95190.22
2023-03-30T07:59:08.848Z,95201.31
2023-03-30T08:01:39.184Z,95215.25
2023-03-30T08:04:27.903Z,95218.94
2023-03-30T08:06:56.383Z,95240.75
2023-03-30T08:09:24.939Z,95252.03
2023-03-30T08:11:53.047Z,95252.63
2023-03-30T08:14:23.538Z,95248.44
2023-03-30T08:16:51.876Z,95260.88
2023-03-30T08:19:19.975Z,95257.25
2023-03-30T08:21:47.979Z,95261.06
2023-03-30T08:24:16.676Z,95267.50
2023-03-30T08:26:44.744Z,95288.47
2023-03-30T08:29:13.146Z,95301.13
2023-03-30T08:31:42.675Z,95326.59
2023-03-30T08:34:11.566Z,95346.97
2023-03-30T08:36:40.068Z,95361.50
2023-03-30T08:39:08.848Z,95374.44
2023-03-30T08:41:58.198Z,95382.00
2023-03-30T08:44:34.929Z,95376.97
2023-03-30T08:47:06.477Z,95378.66
2023-03-30T08:49:37.358Z,95383.25
2023-03-30T08:52:06.251Z,95375.03
2023-03-30T08:54:34.866Z,95378.81
2023-03-30T08:57:07.771Z,95380.69
2023-03-30T08:59:38.861Z,95370.56
2023-03-30T09:02:15.640Z,95370.59
2023-03-30T09:04:55.024Z,95375.72
2023-03-30T09:07:24.221Z,95382.69
2023-03-30T09:09:52.614Z,95377.63
2023-03-30T09:12:23.616Z,95362.38
2023-03-30T09:14:53.080Z,95356.75
2023-03-30T09:17:24.820Z,95348.19
2023-03-30T09:19:55.376Z,95348.41
2023-03-30T09:22:23.906Z,95346.78
2023-03-30T09:24:52.593Z,95345.97
2023-03-30T09:27:22.397Z,95322.63
2023-03-30T09:29:51.724Z,95320.22
2023-03-30T09:32:25.306Z,95319.88
2023-03-30T09:34:55.539Z,95307.25
2023-03-30T09:37:23.765Z,95309.34
2023-03-30T09:39:52.031Z,95318.69
2023-03-30T09:42:29.379Z,95306.66
2023-03-30T09:44:58.692Z,95301.03
2023-03-30T09:47:29.242Z,95300.44
2023-03-30T09:49:58.896Z,95291.03
2023-03-30T09:52:27.750Z,95290.25
2023-03-30T09:54:55.886Z,95266.50
2023-03-30T09:57:26.912Z,95245.63
2023-03-30T09:59:56.021Z,95224.41
2023-03-30T10:02:25.251Z,95207.56
2023-03-30T10:05:03.366Z,95208.03
2023-03-30T10:07:33.931Z,95192.66
2023-03-30T10:10:03.280Z,95211.94
2023-03-30T10:12:32.698Z,95221.28
2023-03-30T10:15:04.706Z,95218.84
2023-03-30T10:17:33.170Z,95233.53
2023-03-30T10:20:27.952Z,95248.78
2023-03-30T10:22:56.775Z,95259.00
2023-03-30T10:25:25.761Z,95253.34
2023-03-30T10:27:56.745Z,95247.78
2023-03-30T10:30:27.241Z,95248.84
2023-03-30T10:32:57.381Z,95251.00
2023-03-30T10:35:27.884Z,95236.81
2023-03-30T10:37:57.160Z,95219.97
2023-03-30T10:40:27.327Z,95223.72
2023-03-30T10:42:56.847Z,95229.06
2023-03-30T10:45:29.184Z,95220.50
2023-03-30T10:48:06.778Z,95222.25
2023-03-30T10:50:41.856Z,95227.25
2023-03-30T10:53:18.181Z,95234.66
2023-03-30T10:55:50.796Z,95231.94
2023-03-30T10:58:25.247Z,95243.66
2023-03-30T11:01:07.796Z,95231.84
2023-03-30T11:03:36.567Z,95232.09
2023-03-30T11:06:10.223Z,95232.59
2023-03-30T11:08:39.645Z,95225.56
2023-03-30T11:11:08.152Z,95225.81
2023-03-30T11:13:38.181Z,95225.38
2023-03-30T11:16:08.850Z,95227.84
2023-03-30T11:18:39.454Z,95212.84
2023-03-30T11:21:11.740Z,95204.66
2023-03-30T11:23:43.834Z,95211.28
2023-03-30T11:26:13.013Z,95200.81
2023-03-30T11:29:03.927Z,95198.59
2023-03-30T11:31:42.161Z,95193.16
2023-03-30T11:34:20.468Z,95192.28
2023-03-30T11:36:57.026Z,95193.38
2023-03-30T11:39:32.221Z,95184.97
2023-03-30T11:42:05.892Z,95174.69
2023-03-30T11:44:34.098Z,95176.97
2023-03-30T11:47:10.606Z,95177.97
2023-03-30T11:49:47.753Z,95185.88
2023-03-30T11:52:23.498Z,95181.41
2023-03-30T11:55:18.564Z,95179.09
2023-03-30T11:57:48.760Z,95183.91
2023-03-30T12:00:31.187Z,95191.34
2023-03-30T12:03:03.834Z,95187.94
2023-03-30T12:05:34.477Z,95189.53
2023-03-30T12:08:07.561Z,95196.06
2023-03-30T12:10:38.404Z,95174.78
2023-03-30T12:13:07.000Z,95182.94
2023-03-30T12:15:41.368Z,95191.38
2023-03-30T12:18:15.904Z,95186.13
2023-03-30T12:20:46.172Z,95183.63
2023-03-30T12:23:31.805Z,95182.13
2023-03-30T12:26:23.413Z,95176.88
2023-03-30T12:29:35.940Z,95178.16
2023-03-30T12:31:51.765Z,95169.72
2023-03-30T12:34:20.094Z,95170.00
2023-03-30T12:36:49.188Z,95172.19
2023-03-30T12:39:21.900Z,95168.31
2023-03-30T12:41:50.762Z,95166.81
2023-03-30T12:44:31.669Z,95157.47
2023-03-30T12:47:12.297Z,95151.69
2023-03-30T12:49:47.350Z,95141.06
2023-03-30T12:52:18.072Z,95158.53
2023-03-30T12:55:03.010Z,95146.53
2023-03-30T12:57:37.830Z,95147.81
2023-03-30T13:00:41.144Z,95139.88
2023-03-30T13:03:29.855Z,95133.91
2023-03-30T13:05:58.887Z,95143.78
2023-03-30T13:08:29.945Z,95144.34
2023-03-30T13:11:09.252Z,95128.94
2023-03-30T13:13:52.678Z,95139.88
2023-03-30T13:17:07.571Z,95136.19
2023-03-30T13:19:48.854Z,95127.78
2023-03-30T13:22:25.488Z,95135.44
2023-03-30T13:24:54.562Z,95124.78
2023-03-30T13:27:27.216Z,95117.91
2023-03-30T13:29:57.075Z,95127.22
2023-03-30T13:32:46.578Z,95118.50
2023-03-30T13:35:35.000Z,95125.97
2023-03-30T13:38:13.469Z,95116.63
2023-03-30T13:41:46.038Z,95128.75
2023-03-30T13:44:23.904Z,95120.91
2023-03-30T13:46:53.732Z,95118.00
2023-03-30T13:49:33.612Z,95115.03
2023-03-30T13:52:04.387Z,95117.63
2023-03-30T13:56:09.518Z,95111.34
2023-03-30T13:58:37.695Z,95103.19
2023-03-30T14:01:08.730Z,95095.72
2023-03-30T14:03:39.677Z,95092.28
2023-03-30T14:06:08.625Z,95100.56
2023-03-30T14:08:38.709Z,95088.41
2023-03-30T14:11:12.471Z,95097.81
2023-03-30T14:13:40.529Z,95098.09
2023-03-30T14:16:09.349Z,95098.28
2023-03-30T14:18:38.083Z,95101.78
2023-03-30T14:21:07.242Z,95100.56
2023-03-30T14:23:37.199Z,95092.19
2023-03-30T14:26:06.528Z,95099.81
2023-03-30T14:28:37.961Z,95099.34
2023-03-30T14:31:13.896Z,95091.56
2023-03-30T14:33:42.087Z,95091.06
2023-03-30T14:36:12.024Z,95092.00
2023-03-30T14:38:40.867Z,95084.00
2023-03-30T14:41:09.980Z,95086.19
2023-03-30T14:43:40.534Z,95087.88
2023-03-30T14:46:10.164Z,95078.13
2023-03-30T14:48:39.264Z,95084.22
2023-03-30T14:51:09.619Z,95079.56
2023-03-30T14:53:37.737Z,95089.00
2023-03-30T14:56:07.787Z,95105.38
2023-03-30T14:58:35.994Z,95108.75
2023-03-30T15:01:09.818Z,95116.94
2023-03-30T15:03:38.496Z,95113.16
2023-03-30T15:06:07.418Z,95123.28
2023-03-30T15:08:39.551Z,95123.72
2023-03-30T15:11:09.152Z,95188.94
2023-03-30T15:13:38.971Z,95212.38
2023-03-30T15:16:08.643Z,95215.22
2023-03-30T15:18:36.769Z,95225.91
2023-03-30T15:21:05.124Z,95218.59
2023-03-30T15:23:36.620Z,95255.56
2023-03-30T15:26:08.093Z,95259.28
2023-03-30T15:28:39.342Z,95259.22
2023-03-30T15:31:10.903Z,95263.31
2023-03-30T15:33:42.446Z,95275.41
2023-03-30T15:36:13.361Z,95275.81
2023-03-30T15:38:47.971Z,95256.34
2023-03-30T15:41:16.754Z,95258.25
2023-03-30T15:43:55.098Z,95252.69
2023-03-30T15:46:24.671Z,95251.63
2023-03-30T15:48:53.493Z,95245.53
2023-03-30T15:51:23.645Z,95229.25
2023-03-30T15:53:55.096Z,95216.97
2023-03-30T15:56:25.305Z,95201.50
2023-03-30T15:58:53.376Z,95204.72
2023-03-30T16:01:23.394Z,95212.97
2023-03-30T16:03:57.758Z,95235.69
2023-03-30T16:06:26.112Z,95232.50
2023-03-30T16:08:54.325Z,95234.63
2023-03-30T16:11:22.493Z,95235.72
2023-03-30T16:13:50.688Z,95221.56
2023-03-30T16:16:19.501Z,95216.00
2023-03-30T16:18:48.037Z,95217.59
2023-03-30T16:21:18.951Z,95211.72
2023-03-30T16:23:47.042Z,95217.34
2023-03-30T16:26:15.088Z,95233.09
2023-03-30T16:28:43.157Z,95220.53
2023-03-30T16:31:14.461Z,95219.19
2023-03-30T16:33:42.561Z,95216.00
2023-03-30T16:36:13.327Z,95215.75
2023-03-30T16:38:42.771Z,95220.28
2023-03-30T16:41:11.722Z,95227.47
2023-03-30T16:43:39.776Z,95222.44
2023-03-30T16:46:08.301Z,95217.38
2023-03-30T16:48:36.528Z,95221.59
2023-03-30T16:51:04.827Z,95224.22
2023-03-30T16:53:33.153Z,95217.25
2023-03-30T16:56:02.797Z,95218.94
2023-03-30T16:58:31.195Z,95217.81
2023-03-30T17:01:04.155Z,95220.50
2023-03-30T17:03:32.675Z,95216.78
2023-03-30T17:06:00.753Z,95222.94
2023-03-30T17:08:29.255Z,95230.94
2023-03-30T17:10:58.437Z,95224.81
2023-03-30T17:13:28.625Z,95222.66
2023-03-30T17:15:58.380Z,95223.19
2023-03-30T17:18:26.769Z,95225.59
2023-03-30T17:20:55.118Z,95227.75
2023-03-30T17:23:24.126Z,95228.28
2023-03-30T17:25:53.785Z,95229.88
2023-03-30T17:28:23.070Z,95233.34
2023-03-30T17:30:53.234Z,95241.66
2023-03-30T17:33:21.366Z,95236.09
2023-03-30T17:35:51.045Z,95241.41
2023-03-30T17:38:19.600Z,95245.41
2023-03-30T17:40:48.665Z,95244.38
2023-03-30T17:43:16.785Z,95247.59
2023-03-30T17:45:46.544Z,95246.03
2023-03-30T17:48:17.548Z,95246.28
2023-03-30T17:50:46.744Z,95240.16
2023-03-30T17:53:16.866Z,95242.28
2023-03-30T17:55:45.919Z,95245.75
2023-03-30T17:58:18.166Z,95244.97
2023-03-30T18:00:47.460Z,95243.91
2023-03-30T18:03:17.203Z,95252.72
2023-03-30T18:05:46.285Z,95264.94
2023-03-30T18:08:17.503Z,95255.91
2023-03-30T18:10:47.876Z,95255.91
2023-03-30T18:13:16.912Z,95261.75
2023-03-30T18:15:46.164Z,95272.69
2023-03-30T18:18:22.999Z,95267.59
2023-03-30T18:20:51.661Z,95267.34
2023-03-30T18:23:19.911Z,95270.25
2023-03-30T18:25:48.132Z,95271.88
2023-03-30T18:28:17.741Z,95272.13
2023-03-30T18:30:46.301Z,95271.59
2023-03-30T18:33:17.306Z,95275.88
2023-03-30T18:35:46.182Z,95272.16
2023-03-30T18:38:14.757Z,95274.00
2023-03-30T18:40:45.200Z,95276.94
2023-03-30T18:43:13.393Z,95285.72
2023-03-30T18:45:42.049Z,95280.91
2023-03-30T18:48:13.184Z,95286.81
2023-03-30T18:50:43.317Z,95282.53
2023-03-30T18:53:12.414Z,95296.91
2023-03-30T18:55:41.181Z,95292.63
2023-03-30T18:58:13.435Z,95295.31
2023-03-30T19:00:41.979Z,95300.91
2023-03-30T19:03:10.282Z,95306.75
2023-03-30T19:05:39.725Z,95293.16
2023-03-30T19:08:11.494Z,95310.50
2023-03-30T19:10:40.157Z,95302.25
2023-03-30T19:13:08.568Z,95309.97
2023-03-30T19:15:37.100Z,95321.44
2023-03-30T19:18:05.559Z,95313.41
2023-03-30T19:20:34.658Z,95308.09
2023-03-30T19:23:02.793Z,95314.44
2023-03-30T19:25:32.275Z,95309.13
2023-03-30T19:28:03.376Z,95319.50
2023-03-30T19:30:33.265Z,95307.53
2023-03-30T19:33:03.736Z,95299.81
2023-03-30T19:35:32.007Z,95314.72
2023-03-30T19:38:00.117Z,95313.38
2023-03-30T19:40:28.279Z,95312.06
2023-03-30T19:42:58.056Z,95319.00
2023-03-30T19:45:26.556Z,95318.19
2023-03-30T19:47:54.612Z,95316.06
2023-03-30T19:50:24.953Z,95324.59
2023-03-30T19:52:54.929Z,95314.75
2023-03-30T19:55:22.979Z,95317.16
2023-03-30T19:57:51.046Z,95305.44
2023-03-30T20:00:21.224Z,95297.47
2023-03-30T20:02:50.745Z,95304.38
2023-03-30T20:05:19.079Z,95304.38
2023-03-30T20:07:47.445Z,95306.75
2023-03-30T20:10:18.870Z,95302.50
2023-03-30T20:12:47.833Z,95311.28
2023-03-30T20:15:15.968Z,95307.81
2023-03-30T20:17:45.528Z,95315.81
2023-03-30T20:20:14.424Z,95315.28
2023-03-30T20:22:43.385Z,95314.75
2023-03-30T20:25:12.503Z,95300.09
2023-03-30T20:27:40.640Z,95311.81
2023-03-30T20:30:09.747Z,95313.41
2023-03-30T20:32:37.847Z,95307.81
2023-03-30T20:35:08.424Z,95310.50
2023-03-30T20:37:36.461Z,95304.63
2023-03-30T20:40:09.589Z,95292.91
2023-03-30T20:42:39.602Z,95300.13
2023-03-30T20:45:09.289Z,95292.91
2023-03-30T20:47:37.777Z,95300.41
2023-03-30T20:50:08.692Z,95292.66
2023-03-30T20:52:36.784Z,95290.78
2023-03-30T20:55:05.044Z,95293.47
2023-03-30T20:57:33.094Z,95283.59
2023-03-30T21:00:01.545Z,95280.69
2023-03-30T21:02:31.560Z,95285.22
2023-03-30T21:04:59.823Z,95286.28
2023-03-30T21:07:29.887Z,95281.47
2023-03-30T21:09:58.008Z,95289.75
2023-03-30T21:12:26.360Z,95282.53
2023-03-30T21:14:54.546Z,95283.63
2023-03-30T21:17:23.016Z,95279.06
2023-03-30T21:19:51.089Z,95280.69
2023-03-30T21:22:19.153Z,95279.59
2023-03-30T21:24:48.643Z,95276.44
2023-03-30T21:27:16.673Z,95276.13
2023-03-30T21:29:44.758Z,95271.09
2023-03-30T21:32:13.196Z,95279.63
2023-03-30T21:34:41.263Z,95272.41
2023-03-30T21:37:09.483Z,95270.81
2023-03-30T21:39:37.582Z,95273.22
2023-03-30T21:42:07.315Z,95275.34
2023-03-30T21:44:36.012Z,95272.16
2023-03-30T21:47:04.115Z,95281.19
2023-03-30T21:49:33.063Z,95274.53
2023-03-30T21:52:01.209Z,95279.06
2023-03-30T21:54:29.298Z,95277.22
2023-03-30T21:56:57.375Z,95280.13
2023-03-30T21:59:27.394Z,95287.88
2023-03-30T22:01:55.928Z,95287.31
2023-03-30T22:04:24.109Z,95286.28
2023-03-30T22:06:52.146Z,95282.28
2023-03-30T22:09:20.252Z,95285.72
2023-03-30T22:11:49.163Z,95278.00
2023-03-30T22:14:17.182Z,95282.28
2023-03-30T22:16:46.744Z,95274.28
2023-03-30T22:19:14.918Z,95275.06
2023-03-30T22:21:43.159Z,95272.69
2023-03-30T22:24:12.261Z,95270.53
2023-03-30T22:26:40.989Z,95274.56
2023-03-30T22:29:09.042Z,95262.31
2023-03-30T22:31:37.177Z,95264.16
2023-03-30T22:34:07.266Z,95253.47
2023-03-30T22:36:35.773Z,95260.41
2023-03-30T22:39:04.193Z,95258.81
2023-03-30T22:41:32.586Z,95244.16
2023-03-30T22:44:00.616Z,95256.16
2023-03-30T22:46:28.734Z,95249.22
2023-03-30T22:48:56.788Z,95245.50
2023-03-30T22:51:27.214Z,95246.53
2023-03-30T22:53:57.785Z,95243.38
2023-03-30T22:56:25.973Z,95241.78
2023-03-30T22:58:54.044Z,95242.00
2023-03-30T23:01:22.365Z,95238.31
2023-03-30T23:03:50.684Z,95224.72
2023-03-30T23:06:19.652Z,95233.25
2023-03-30T23:08:52.705Z,95231.34
2023-03-30T23:11:21.650Z,95226.84
2023-03-30T23:13:49.726Z,95227.66
2023-03-30T23:16:17.830Z,95229.22
2023-03-30T23:18:45.945Z,95223.34
2023-03-30T23:21:14.389Z,95220.44
2023-03-30T23:23:42.428Z,95224.19
2023-03-30T23:26:12.152Z,95216.19
2023-03-30T23:28:41.338Z,95217.25
2023-03-30T23:31:10.153Z,95211.94
2023-03-30T23:33:38.221Z,95223.09
2023-03-30T23:36:07.870Z,95219.38
2023-03-30T23:38:36.201Z,95215.63
2023-03-30T23:41:04.241Z,95213.78
2023-03-30T23:43:33.774Z,95213.50
2023-03-30T23:46:01.954Z,95220.16
2023-03-30T23:48:30.071Z,95209.75
2023-03-30T23:50:58.864Z,95216.44
2023-03-30T23:53:27.437Z,95212.69
2023-03-30T23:55:55.530Z,95196.44
2023-03-30T23:58:23.633Z,95203.91
